Impacts TAF Board
For situational awareness. Not to be used for flight planning purposes.
IDs:

KPDX - Portland Intl Arpt, OR, US

Issued at 2103 UTC 18 Nov 2018
Updated at 2223 UTC 18 Nov 2018
Potential Impact None Slight Moderate High
Time2153Z 18/23Z 19/00Z 19/01Z 19/02Z 19/03Z 19/04Z 19/05Z 19/06Z 19/07Z 19/08Z 19/09Z 19/10Z 19/11Z>>
Type OBS PRVL PRVL PRVL PRVL PRVL PRVL PRVL PRVL PRVL PRVL PRVL PRVL PRVL
VIS 10 >6 >6 >6 >6 >6 >6 >6 >6 >6 >6 >6 >6 >6
CIG -- -- -- -- -- -- -- -- -- -- -- -- -- --
Cover CLR SKC SKC SKC SKC SKC SKC SKC SKC SKC SKC SKC SKC SKC
FltCat VFR VFR VFR VFR VFR VFR VFR VFR VFR VFR VFR VFR VFR VFR
WX -- -- -- -- -- -- -- -- -- -- -- -- -- --
WDir 10 VRB VRB VRB VRB VRB VRB VRB VRB VRB VRB VRB VRB VRB
WSpd 3 4 4 4 4 4 4 4 4 3 3 3 3 3
WGst -- -- -- -- -- -- -- -- -- -- -- -- -- --
Raw TAF
KPDX 182103Z 1821/1918 VRB04KT P6SM SKC
  FM190700 VRB03KT P6SM SKC


Raw METAR
KPDX 182153Z 01003KT 10SM CLR 13/01 A3014 RMK AO2 SLP207 T01280011
KPDX 182053Z 01003KT 10SM CLR 12/02 A3016 RMK AO2 SLP211 T01220017 58015
KPDX 181953Z 25003KT 10SM CLR 11/01 A3017 RMK AO2 SLP217 T01110011

METAR Board
Radar Display
Forecast Discussion
For situational awareness. Not to be used for flight planning purposes.